createdAt,value
2023-02-02T00:02:23.320Z,95827.09
2023-02-02T00:07:29.150Z,95824.34
2023-02-02T00:12:35.796Z,95821.22
2023-02-02T00:17:37.394Z,95824.34
2023-02-02T00:22:41.560Z,95796.94
2023-02-02T00:27:48.348Z,95805.97
2023-02-02T00:33:07.144Z,95854.78
2023-02-02T00:38:16.120Z,95798.88
2023-02-02T00:43:26.107Z,95828.56
2023-02-02T00:48:27.673Z,95799.31
2023-02-02T00:53:35.764Z,95792.31
2023-02-02T00:58:45.098Z,95791.53
2023-02-02T01:03:52.951Z,95807.06
2023-02-02T01:08:56.599Z,95813.25
2023-02-02T01:13:58.400Z,95824.47
2023-02-02T01:19:03.502Z,95826.78
2023-02-02T01:24:05.446Z,95824.19
2023-02-02T01:29:09.209Z,95839.56
2023-02-02T01:34:15.643Z,95842.63
2023-02-02T01:39:17.241Z,95833.00
2023-02-02T01:44:55.668Z,95851.63
2023-02-02T01:50:05.386Z,95823.50
2023-02-02T01:55:13.281Z,95819.75
2023-02-02T02:00:20.201Z,95830.56
2023-02-02T02:05:31.252Z,95832.75
2023-02-02T02:10:37.536Z,95823.69
2023-02-02T02:16:17.978Z,95861.56
2023-02-02T02:22:12.161Z,95873.72
2023-02-02T02:27:33.789Z,95879.41
2023-02-02T02:33:03.586Z,95901.69
2023-02-02T02:38:32.530Z,95914.59
2023-02-02T02:43:56.267Z,95922.69
2023-02-02T02:49:01.892Z,95922.41
2023-02-02T02:54:06.915Z,95922.28
2023-02-02T02:59:38.551Z,95906.16
2023-02-02T03:04:50.403Z,95912.69
2023-02-02T03:10:03.482Z,95912.16
2023-02-02T03:15:10.239Z,95930.31
2023-02-02T03:20:16.098Z,95952.25
2023-02-02T03:25:23.821Z,95932.47
2023-02-02T03:30:29.060Z,95932.72
2023-02-02T03:35:33.210Z,95944.63
2023-02-02T03:40:46.859Z,95960.97
2023-02-02T03:45:48.527Z,95959.38
2023-02-02T03:50:50.291Z,95953.28
2023-02-02T03:55:54.962Z,95963.88
2023-02-02T04:01:07.594Z,95965.91
2023-02-02T04:06:18.843Z,95964.22
2023-02-02T04:11:23.202Z,95967.81
2023-02-02T04:16:32.873Z,95975.03
2023-02-02T04:21:34.465Z,95979.88
2023-02-02T04:26:36.898Z,95980.75
2023-02-02T04:31:43.801Z,95961.50
2023-02-02T04:36:49.827Z,95972.84
2023-02-02T04:42:13.725Z,95969.22
2023-02-02T04:47:20.265Z,95976.75
2023-02-02T04:52:26.582Z,95964.78
2023-02-02T04:57:28.208Z,95977.22
2023-02-02T05:02:35.055Z,95990.03
2023-02-02T05:07:40.293Z,95999.63
2023-02-02T05:12:44.150Z,96005.13
2023-02-02T05:17:52.964Z,96010.19
2023-02-02T05:22:56.508Z,96004.00
2023-02-02T05:27:58.541Z,96025.63
2023-02-02T05:33:05.836Z,96027.97
2023-02-02T05:38:11.563Z,96028.78
2023-02-02T05:43:13.116Z,96036.09
2023-02-02T05:48:21.807Z,96029.56
2023-02-02T05:53:27.628Z,96029.22
2023-02-02T05:58:31.615Z,96030.81
2023-02-02T06:03:39.518Z,96037.78
2023-02-02T06:08:42.283Z,96031.25
2023-02-02T06:13:46.451Z,96028.56
2023-02-02T06:18:51.842Z,96031.69
2023-02-02T06:23:55.675Z,96030.56
2023-02-02T06:29:08.771Z,96031.34
2023-02-02T06:34:14.828Z,96047.25
2023-02-02T06:39:21.838Z,96047.56
2023-02-02T06:44:30.929Z,96061.88
2023-02-02T06:49:39.427Z,96061.09
2023-02-02T06:54:40.995Z,96063.34
2023-02-02T06:59:44.857Z,96058.72
2023-02-02T07:04:52.888Z,96067.66
2023-02-02T07:09:58.373Z,96073.47
2023-02-02T07:15:02.551Z,96079.25
2023-02-02T07:20:12.070Z,96076.44
2023-02-02T07:25:19.236Z,96078.72
2023-02-02T07:30:21.877Z,96085.59
2023-02-02T07:35:26.771Z,96079.03
2023-02-02T07:40:35.535Z,96086.00
2023-02-02T07:45:39.744Z,96083.75
2023-02-02T07:50:41.455Z,96091.88
2023-02-02T07:55:47.502Z,96087.84
2023-02-02T08:00:51.179Z,96103.63
2023-02-02T08:05:52.779Z,96095.75
2023-02-02T08:10:56.842Z,96103.06
2023-02-02T08:16:00.098Z,96100.47
2023-02-02T08:21:13.532Z,96106.31
2023-02-02T08:26:27.788Z,96109.03
2023-02-02T08:31:45.372Z,96108.56
2023-02-02T08:36:55.913Z,96115.66
2023-02-02T08:42:00.015Z,96123.09
2023-02-02T08:47:09.550Z,96109.69
2023-02-02T08:52:13.489Z,96112.16
2023-02-02T08:57:18.528Z,96117.66
2023-02-02T09:02:22.164Z,96113.94
2023-02-02T09:07:26.867Z,96121.28
2023-02-02T09:12:33.183Z,96122.06
2023-02-02T09:17:44.191Z,96120.91
2023-02-02T09:22:50.670Z,96124.44
2023-02-02T09:27:54.524Z,96126.44
2023-02-02T09:33:01.594Z,96137.34
2023-02-02T09:38:10.399Z,96126.28
2023-02-02T09:43:41.283Z,96137.56
2023-02-02T09:48:54.951Z,96134.88
2023-02-02T09:54:10.232Z,96136.53
2023-02-02T09:59:22.358Z,96140.16
2023-02-02T10:04:51.857Z,96145.69
2023-02-02T10:10:17.991Z,96140.38
2023-02-02T10:15:37.702Z,96142.81
2023-02-02T10:20:46.079Z,96140.91
2023-02-02T10:25:58.004Z,96142.81
2023-02-02T10:31:03.623Z,96132.34
2023-02-02T10:36:29.858Z,96136.28
2023-02-02T10:41:45.241Z,96125.88
2023-02-02T10:46:54.300Z,96123.75
2023-02-02T10:52:14.049Z,96116.06
2023-02-02T10:57:22.539Z,96128.22
2023-02-02T11:02:24.182Z,96120.19
2023-02-02T11:07:26.139Z,96114.88
2023-02-02T11:12:36.780Z,96110.31
2023-02-02T11:17:42.918Z,96108.44
2023-02-02T11:22:51.765Z,96102.66
2023-02-02T11:27:56.740Z,96105.00
2023-02-02T11:33:19.592Z,96109.66
2023-02-02T11:38:24.397Z,96103.88
2023-02-02T11:43:35.248Z,96103.88
2023-02-02T11:48:41.044Z,96095.31
2023-02-02T11:54:00.253Z,96102.19
2023-02-02T11:59:03.938Z,96101.78
2023-02-02T12:04:15.875Z,96106.06
2023-02-02T12:09:25.810Z,96091.72
2023-02-02T12:14:37.335Z,96092.50
2023-02-02T12:20:05.662Z,96091.38
2023-02-02T12:25:51.856Z,96089.97
2023-02-02T12:31:42.932Z,96095.19
2023-02-02T12:37:03.385Z,96088.56
2023-02-02T12:42:32.907Z,96107.38
2023-02-02T12:47:58.029Z,96094.78
2023-02-02T12:53:35.538Z,96091.41
2023-02-02T12:59:10.705Z,96103.00
2023-02-02T13:04:16.800Z,96116.41
2023-02-02T13:09:36.493Z,96139.75
2023-02-02T13:14:51.592Z,96100.69
2023-02-02T13:20:03.426Z,96101.66
2023-02-02T13:25:11.156Z,96123.78
2023-02-02T13:30:38.221Z,96109.78
2023-02-02T13:36:01.814Z,96119.34
2023-02-02T13:41:12.474Z,96143.19
2023-02-02T13:46:31.453Z,96131.75
2023-02-02T13:52:02.562Z,96146.38
2023-02-02T13:57:43.277Z,96143.66
2023-02-02T14:02:57.870Z,96157.66
2023-02-02T14:08:25.404Z,96177.03
2023-02-02T14:13:55.667Z,96162.81
2023-02-02T14:19:03.511Z,96175.56
2023-02-02T14:24:37.372Z,96192.38
2023-02-02T14:29:47.282Z,96197.09
2023-02-02T14:34:50.468Z,96214.56
2023-02-02T14:40:07.428Z,96223.84
2023-02-02T14:45:12.119Z,96235.97
2023-02-02T14:50:36.233Z,96246.94
2023-02-02T14:56:05.035Z,96254.53
2023-02-02T15:01:24.349Z,96265.34
2023-02-02T15:06:38.756Z,96271.00
2023-02-02T15:12:03.952Z,96272.28
2023-02-02T15:17:32.055Z,96286.66
2023-02-02T15:22:42.857Z,96296.25
2023-02-02T15:28:04.764Z,96305.81
2023-02-02T15:33:23.778Z,96314.16
2023-02-02T15:38:35.558Z,96333.53
2023-02-02T15:43:43.552Z,96337.41
2023-02-02T15:48:45.088Z,96345.72
2023-02-02T15:53:49.379Z,96353.69
2023-02-02T15:58:58.470Z,96358.06
2023-02-02T16:04:19.494Z,96374.69
2023-02-02T16:09:28.311Z,96385.72
2023-02-02T16:14:30.301Z,96388.22
2023-02-02T16:19:34.951Z,96399.16
2023-02-02T16:24:51.995Z,96410.09
2023-02-02T16:29:59.737Z,96425.31
2023-02-02T16:35:05.161Z,96438.63
2023-02-02T16:40:28.109Z,96447.31
2023-02-02T16:45:48.525Z,96454.44
2023-02-02T16:51:17.709Z,96472.69
2023-02-02T16:56:28.887Z,96483.00
2023-02-02T17:01:37.402Z,96482.00
2023-02-02T17:06:52.349Z,96506.03
2023-02-02T17:12:03.398Z,96498.34
2023-02-02T17:17:13.451Z,96505.00
2023-02-02T17:22:18.581Z,96522.63
2023-02-02T17:27:41.541Z,96528.16
2023-02-02T17:32:49.212Z,96539.56
2023-02-02T17:37:54.722Z,96544.34
2023-02-02T17:43:06.510Z,96557.66
2023-02-02T17:48:17.037Z,96579.41
2023-02-02T17:53:26.362Z,96574.47
2023-02-02T17:58:32.576Z,96577.31
2023-02-02T18:03:40.638Z,96581.25
2023-02-02T18:08:42.264Z,96594.47
2023-02-02T18:13:49.825Z,96598.44
2023-02-02T18:18:54.158Z,96600.00
2023-02-02T18:24:01.354Z,96595.06
2023-02-02T18:29:05.496Z,96610.19
2023-02-02T18:34:11.449Z,96604.78
2023-02-02T18:39:21.829Z,96612.91
2023-02-02T18:44:25.800Z,96613.22
2023-02-02T18:49:37.578Z,96617.03
2023-02-02T18:54:41.675Z,96620.88
2023-02-02T18:59:46.033Z,96623.88
2023-02-02T19:05:06.350Z,96622.00
2023-02-02T19:10:10.726Z,96628.50
2023-02-02T19:15:18.261Z,96619.59
2023-02-02T19:20:32.238Z,96625.03
2023-02-02T19:25:36.570Z,96622.31
2023-02-02T19:30:45.829Z,96624.53
2023-02-02T19:35:56.117Z,96622.97
2023-02-02T19:41:10.153Z,96618.34
2023-02-02T19:46:22.603Z,96623.44
2023-02-02T19:51:33.658Z,96628.84
2023-02-02T19:56:41.113Z,96632.34
2023-02-02T20:01:50.579Z,96630.75
2023-02-02T20:07:04.734Z,96635.53
2023-02-02T20:12:24.330Z,96646.19
2023-02-02T20:17:34.376Z,96640.31
2023-02-02T20:22:39.347Z,96651.13
2023-02-02T20:27:40.859Z,96644.94
2023-02-02T20:32:42.502Z,96651.94
2023-02-02T20:37:59.993Z,96651.94
2023-02-02T20:43:01.601Z,96653.84
2023-02-02T20:48:08.008Z,96650.81
2023-02-02T20:53:17.716Z,96642.38
2023-02-02T20:58:26.045Z,96643.97
2023-02-02T21:03:37.767Z,96638.41
2023-02-02T21:08:39.423Z,96636.81
2023-02-02T21:13:46.781Z,96633.31
2023-02-02T21:18:50.826Z,96643.03
2023-02-02T21:23:58.862Z,96652.72
2023-02-02T21:29:04.764Z,96646.19
2023-02-02T21:34:11.311Z,96646.19
2023-02-02T21:39:35.779Z,96654.78
2023-02-02T21:44:44.055Z,96657.47
2023-02-02T21:49:54.385Z,96649.38
2023-02-02T21:54:56.532Z,96658.75
2023-02-02T22:00:16.550Z,96646.00
2023-02-02T22:05:20.128Z,96644.06
2023-02-02T22:10:36.589Z,96634.84
2023-02-02T22:15:39.076Z,96638.81
2023-02-02T22:20:47.366Z,96631.50
2023-02-02T22:25:58.274Z,96633.88
2023-02-02T22:31:00.932Z,96641.78
2023-02-02T22:36:08.315Z,96642.59
2023-02-02T22:41:15.151Z,96638.88
2023-02-02T22:46:20.866Z,96644.09
2023-02-02T22:51:22.438Z,96654.94
2023-02-02T22:56:23.942Z,96649.97
2023-02-02T23:01:38.024Z,96649.16
2023-02-02T23:06:51.520Z,96637.91
2023-02-02T23:12:15.084Z,96649.66
2023-02-02T23:17:20.065Z,96648.06
2023-02-02T23:22:21.717Z,96655.53
2023-02-02T23:27:29.073Z,96650.25
2023-02-02T23:32:34.079Z,96660.66
2023-02-02T23:37:43.176Z,96656.69
2023-02-02T23:43:02.767Z,96662.53
2023-02-02T23:48:17.135Z,96648.88
2023-02-02T23:53:19.797Z,96649.34
2023-02-02T23:58:30.195Z,96651.72
